createdAt,value
2018-09-09T13:11:48.687Z,26.40
2018-09-09T13:14:17.230Z,26.70
2018-09-09T13:16:45.746Z,26.90
2018-09-09T13:19:14.226Z,26.80
2018-09-09T13:21:42.758Z,27.20
2018-09-09T13:24:11.289Z,27.30
2018-09-09T13:26:39.805Z,26.70
2018-09-09T13:29:08.360Z,26.80
2018-09-09T13:31:36.874Z,27.00
2018-09-09T13:34:05.436Z,27.50
2018-09-09T13:36:33.945Z,27.90
2018-09-09T13:39:02.915Z,28.00
2018-09-09T13:41:31.468Z,28.30
2018-09-09T13:44:00.000Z,28.30
2018-09-09T13:46:28.536Z,28.40
2018-09-09T13:48:57.094Z,28.50
2018-09-09T13:51:25.596Z,28.70
2018-09-09T13:53:54.106Z,28.10
2018-09-09T13:56:22.620Z,27.80
2018-09-09T13:58:51.130Z,27.70
2018-09-09T14:01:19.600Z,27.70
2018-09-09T14:03:48.196Z,27.60
2018-09-09T14:06:16.712Z,27.40
2018-09-09T14:08:45.308Z,27.40
2018-09-09T14:11:13.801Z,27.50
2018-09-09T14:13:42.322Z,27.50
2018-09-09T14:16:10.855Z,27.70
2018-09-09T14:18:39.415Z,27.40
2018-09-09T14:21:07.965Z,27.10
2018-09-09T14:23:36.499Z,26.80
2018-09-09T14:26:05.016Z,26.70
2018-09-09T14:28:33.518Z,26.40
2018-09-09T14:31:02.103Z,26.40
2018-09-09T14:33:30.658Z,26.20
2018-09-09T14:35:59.169Z,26.20
2018-09-09T14:38:27.777Z,26.20
2018-09-09T14:40:56.293Z,26.30
2018-09-09T14:43:24.804Z,26.50
2018-09-09T14:45:53.283Z,26.60
2018-09-09T14:48:21.786Z,26.90
2018-09-09T14:50:50.250Z,27.10
2018-09-09T14:53:18.894Z,27.20
2018-09-09T14:55:47.329Z,27.30
2018-09-09T14:58:15.922Z,27.20
2018-09-09T15:00:44.422Z,27.30
2018-09-09T15:03:12.949Z,26.90
2018-09-09T15:05:41.517Z,26.80
2018-09-09T15:08:10.055Z,26.20
2018-09-09T15:10:38.551Z,26.10
2018-09-09T15:13:07.666Z,26.30
2018-09-09T15:15:36.253Z,26.40
2018-09-09T15:18:04.757Z,26.40
2018-09-09T15:20:33.347Z,26.40
2018-09-09T15:23:08.486Z,26.10
2018-09-09T15:25:37.011Z,26.10
2018-09-09T15:28:05.684Z,26.10
2018-09-09T15:30:34.203Z,26.10
2018-09-09T15:33:02.719Z,26.10
2018-09-09T15:35:31.206Z,26.00
2018-09-09T15:37:59.755Z,26.10
2018-09-09T15:40:28.244Z,25.90
2018-09-09T15:42:56.768Z,25.80
2018-09-09T15:45:25.448Z,25.80
2018-09-09T15:47:53.999Z,25.80
2018-09-09T15:50:22.498Z,25.70
2018-09-09T15:52:51.044Z,25.60
2018-09-09T15:55:21.223Z,25.50
2018-09-09T15:57:51.691Z,25.50
2018-09-09T16:00:21.916Z,25.40
2018-09-09T16:02:52.633Z,25.40
2018-09-09T16:05:22.701Z,25.30
2018-09-09T16:07:54.283Z,25.30
2018-09-09T16:10:23.905Z,25.20
2018-09-09T16:12:53.659Z,25.10
2018-09-09T16:15:23.804Z,25.10
2018-09-09T16:17:53.829Z,25.00
2018-09-09T16:20:23.777Z,25.10
2018-09-09T16:22:53.650Z,25.10
2018-09-09T16:25:22.256Z,25.00
2018-09-09T16:27:50.748Z,24.90
2018-09-09T16:30:19.552Z,24.90
2018-09-09T16:32:48.026Z,24.80
2018-09-09T16:35:16.848Z,24.60
2018-09-09T16:37:45.341Z,24.40
2018-09-09T16:40:13.855Z,24.40
2018-09-09T16:42:42.365Z,24.40
2018-09-09T16:45:10.866Z,24.30
2018-09-09T16:47:39.394Z,24.40
2018-09-09T16:50:07.972Z,24.30
2018-09-09T16:52:36.812Z,24.20
2018-09-09T16:55:05.406Z,24.20
2018-09-09T16:57:33.904Z,24.00
2018-09-09T17:00:02.439Z,23.90
2018-09-09T17:02:31.232Z,23.70
2018-09-09T17:04:59.736Z,23.60
2018-09-09T17:07:28.210Z,23.40
2018-09-09T17:09:56.745Z,23.30
2018-09-09T17:12:25.555Z,23.20
2018-09-09T17:14:54.310Z,23.10
2018-09-09T17:17:22.815Z,23.00
2018-09-09T17:19:51.366Z,23.10
2018-09-09T17:22:20.553Z,23.10
2018-09-09T17:24:49.116Z,22.90
2018-09-09T17:27:17.629Z,22.70
2018-09-09T17:29:46.553Z,22.50
2018-09-09T17:32:15.065Z,22.30
2018-09-09T17:34:43.582Z,22.00
2018-09-09T17:37:12.063Z,21.80
2018-09-09T17:39:40.622Z,21.70
2018-09-09T17:42:09.133Z,21.60
2018-09-09T17:44:37.778Z,21.90
2018-09-09T17:47:06.275Z,21.70
2018-09-09T17:49:34.771Z,21.40
2018-09-09T17:52:03.263Z,21.20
2018-09-09T17:54:31.776Z,21.50
2018-09-09T17:57:00.264Z,21.60
2018-09-09T17:59:28.808Z,21.60
2018-09-09T18:01:57.619Z,21.50
2018-09-09T18:04:26.371Z,21.20
2018-09-09T18:06:54.902Z,20.80
2018-09-09T18:09:23.422Z,20.60
2018-09-09T18:11:51.902Z,20.40
2018-09-09T18:14:20.413Z,20.40
2018-09-09T18:16:48.936Z,20.30
2018-09-09T18:19:17.482Z,20.10
2018-09-09T18:21:46.013Z,19.80
2018-09-09T18:24:14.553Z,19.70
2018-09-09T18:26:43.062Z,20.20
2018-09-09T18:29:11.574Z,20.00
2018-09-09T18:31:40.113Z,19.90
2018-09-09T18:34:08.734Z,19.60
2018-09-09T18:36:37.231Z,19.40
2018-09-09T18:39:07.976Z,19.40
2018-09-09T18:41:36.362Z,19.50
2018-09-09T18:44:04.858Z,19.60
2018-09-09T18:46:33.410Z,19.40
2018-09-09T18:49:01.942Z,19.10
2018-09-09T18:51:30.475Z,19.10
2018-09-09T18:53:59.059Z,19.00
2018-09-09T18:56:27.583Z,19.20
2018-09-09T18:58:56.063Z,19.10
2018-09-09T19:01:24.551Z,18.70
2018-09-09T19:03:53.002Z,18.60
2018-09-09T19:06:21.914Z,19.00
2018-09-09T19:08:50.289Z,19.00
2018-09-09T19:11:18.787Z,18.60
2018-09-09T19:13:47.949Z,18.30
2018-09-09T19:16:16.483Z,18.30
2018-09-09T19:18:44.994Z,18.30
2018-09-09T19:21:13.530Z,18.20
2018-09-09T19:23:42.034Z,18.60
2018-09-09T19:26:10.563Z,18.40
2018-09-09T19:28:39.059Z,18.30
2018-09-09T19:31:07.598Z,17.90
2018-09-09T19:33:36.342Z,17.80
2018-09-09T19:36:04.853Z,17.70
2018-09-09T19:38:33.672Z,17.60
2018-09-09T19:41:02.178Z,17.50
2018-09-09T19:43:30.996Z,17.30
2018-09-09T19:45:59.523Z,17.20
2018-09-09T19:48:28.019Z,17.20
2018-09-09T19:50:56.790Z,17.00
2018-09-09T19:53:25.319Z,16.90
2018-09-09T19:55:54.230Z,17.00
2018-09-09T19:58:22.784Z,17.10
2018-09-09T20:00:51.623Z,17.10
2018-09-09T20:03:20.130Z,16.90
2018-09-09T20:05:48.663Z,16.60
2018-09-09T20:08:17.154Z,16.40
2018-09-09T20:10:45.766Z,16.50
2018-09-09T20:13:14.274Z,16.60
2018-09-09T20:15:42.816Z,16.70
2018-09-09T20:18:11.369Z,16.60
2018-09-09T20:20:39.931Z,16.50
2018-09-09T20:23:08.408Z,16.30
2018-09-09T20:25:36.993Z,16.10
2018-09-09T20:28:06.095Z,16.00
2018-09-09T20:30:34.596Z,16.10
2018-09-09T20:33:03.094Z,16.30
2018-09-09T20:35:31.637Z,16.20
2018-09-09T20:38:00.113Z,16.10
2018-09-09T20:40:28.669Z,15.90
2018-09-09T20:42:57.149Z,15.90
2018-09-09T20:45:25.668Z,15.90
2018-09-09T20:47:54.178Z,16.10
2018-09-09T20:50:22.747Z,16.00
2018-09-09T20:52:51.387Z,16.00
2018-09-09T20:55:19.977Z,15.80
2018-09-09T20:57:48.487Z,15.60
2018-09-09T21:00:17.034Z,15.50
2018-09-09T21:02:45.497Z,15.50
2018-09-09T21:05:14.018Z,15.60
2018-09-09T21:07:42.607Z,15.50
2018-09-09T21:10:11.110Z,15.60
2018-09-09T21:12:39.654Z,15.40
2018-09-09T21:15:08.203Z,15.40
2018-09-09T21:17:36.733Z,15.40
2018-09-09T21:20:05.378Z,15.40
2018-09-09T21:22:34.371Z,15.30
2018-09-09T21:25:03.024Z,15.40
2018-09-09T21:27:31.582Z,15.50
2018-09-09T21:30:00.111Z,15.50
2018-09-09T21:32:28.621Z,15.30
2018-09-09T21:34:57.168Z,15.30
2018-09-09T21:37:25.691Z,15.20
2018-09-09T21:39:54.154Z,15.10
2018-09-09T21:43:25.984Z,15.10
2018-09-09T21:45:54.517Z,15.00
2018-09-09T21:48:23.028Z,14.60
2018-09-09T21:50:51.556Z,14.50
2018-09-09T21:53:20.047Z,14.50
2018-09-09T21:55:48.556Z,14.60
2018-09-09T21:58:17.058Z,14.50
2018-09-09T22:00:50.986Z,14.50
2018-09-09T22:03:19.479Z,14.80
2018-09-09T22:05:47.954Z,14.70
2018-09-09T22:08:16.498Z,14.60
2018-09-09T22:10:45.059Z,14.60
2018-09-09T22:13:13.751Z,14.30
2018-09-09T22:15:42.303Z,14.20
2018-09-09T22:18:10.851Z,14.10
2018-09-09T22:20:39.354Z,14.20
2018-09-09T22:23:07.873Z,14.30
2018-09-09T22:25:37.059Z,14.40
2018-09-09T22:28:06.277Z,14.40
2018-09-09T22:30:41.491Z,14.10
2018-09-09T22:33:10.035Z,14.10
2018-09-09T22:35:38.537Z,14.10
2018-09-09T22:38:07.196Z,13.90
2018-09-09T22:40:35.713Z,13.60
2018-09-09T22:43:04.235Z,13.70
2018-09-09T22:45:32.750Z,13.50
2018-09-09T22:48:01.274Z,13.40
2018-09-09T22:50:29.783Z,13.50
2018-09-09T22:52:58.303Z,13.50
2018-09-09T22:55:26.805Z,13.40
2018-09-09T22:57:55.309Z,13.30
2018-09-09T23:00:23.861Z,13.40
2018-09-09T23:02:52.387Z,13.50
2018-09-09T23:05:20.968Z,13.50
2018-09-09T23:07:49.460Z,13.40
2018-09-09T23:10:17.972Z,13.40
2018-09-09T23:12:46.471Z,13.40
2018-09-09T23:15:14.966Z,13.40
2018-09-09T23:17:43.479Z,13.40
2018-09-09T23:20:12.022Z,13.50
2018-09-09T23:22:40.551Z,13.30
2018-09-09T23:25:09.037Z,13.20
2018-09-09T23:27:37.573Z,13.00
2018-09-09T23:30:06.191Z,13.10
2018-09-09T23:32:34.717Z,13.10
2018-09-09T23:35:03.499Z,13.10
2018-09-09T23:37:32.357Z,13.20
2018-09-09T23:40:00.915Z,13.10
2018-09-09T23:42:29.438Z,13.20
2018-09-09T23:44:57.927Z,13.20
2018-09-09T23:47:26.431Z,13.30
2018-09-09T23:49:54.975Z,13.30
2018-09-09T23:52:23.498Z,13.20
2018-09-09T23:54:52.001Z,13.20
2018-09-09T23:57:20.531Z,13.00
2018-09-09T23:59:49.067Z,12.90
